Time;durP1;ratioP1;P1;durP2;ratioP2;P2;SDS_P1;SDS_P2;PMS_P1;PMS_P2;Temp;Humidity;BMP_temperature;BMP_pressure;BME280_temperature;BME280_humidity;BME280_pressure;Samples;Min_cycle;Max_cycle;Signal;HPM_P1;HPM_P2
2021/12/08 00:00:02;;;;;;;47.63;19.65;;;;;;;;;;6319886;28;20048;-64
2021/12/08 00:03:30;;;;;;;43.28;18.30;;;;;;;;;;6318663;28;20070;-65
2021/12/08 00:06:33;;;;;;;42.22;18.80;;;;;;;;;;6318167;28;20043;-65
2021/12/08 00:09:48;;;;;;;44.60;19.58;;;;;;;;;;6334888;28;20225;-65
2021/12/08 00:13:03;;;;;;;43.83;19.00;;;;;;;;;;6319431;28;20044;-65
2021/12/08 00:16:09;;;;;;;42.63;19.13;;;;;;;;;;6318146;28;20053;-65
2021/12/08 00:19:12;;;;;;;41.35;18.13;;;;;;;;;;6318765;28;20519;-65
2021/12/08 00:22:15;;;;;;;46.03;18.58;;;;;;;;;;6319055;28;20073;-66
2021/12/08 00:25:18;;;;;;;43.60;19.85;;;;;;;;;;6318809;28;20490;-66
2021/12/08 00:28:21;;;;;;;38.63;17.88;;;;;;;;;;6317902;28;20048;-66
2021/12/08 00:31:28;;;;;;;36.03;16.77;;;;;;;;;;6317826;28;20052;-65
2021/12/08 00:34:32;;;;;;;43.72;18.83;;;;;;;;;;6318806;28;20445;-66
2021/12/08 00:37:35;;;;;;;45.40;19.83;;;;;;;;;;6317694;28;20504;-66
2021/12/08 00:40:38;;;;;;;45.65;18.48;;;;;;;;;;6333954;28;20048;-66
2021/12/08 00:43:44;;;;;;;38.90;17.17;;;;;;;;;;6318687;28;20051;-66
2021/12/08 00:46:48;;;;;;;43.10;18.20;;;;;;;;;;6334020;28;20089;-66
2021/12/08 00:49:51;;;;;;;41.17;18.38;;;;;;;;;;6317652;28;20043;-66
2021/12/08 00:52:56;;;;;;;39.25;16.92;;;;;;;;;;6318814;28;20044;-67
2021/12/08 00:55:59;;;;;;;42.58;17.05;;;;;;;;;;6334041;28;20074;-67
2021/12/08 00:59:03;;;;;;;53.13;22.63;;;;;;;;;;6332856;28;20069;-67
2021/12/08 01:02:07;;;;;;;41.25;17.33;;;;;;;;;;6317644;28;20070;-66
2021/12/08 01:05:11;;;;;;;39.22;16.42;;;;;;;;;;6316378;28;20044;-66
2021/12/08 01:08:14;;;;;;;35.05;15.77;;;;;;;;;;6317055;28;20036;-66
2021/12/08 01:11:18;;;;;;;38.58;16.38;;;;;;;;;;6316778;28;20048;-66
2021/12/08 01:14:21;;;;;;;39.50;16.30;;;;;;;;;;6316748;28;20043;-66
2021/12/08 01:17:26;;;;;;;37.40;16.05;;;;;;;;;;6315898;28;20047;-66
2021/12/08 01:20:29;;;;;;;34.38;15.52;;;;;;;;;;6315262;28;20611;-66
2021/12/08 01:23:32;;;;;;;39.45;15.95;;;;;;;;;;6317673;28;20040;-66
2021/12/08 01:26:35;;;;;;;37.80;15.98;;;;;;;;;;6316407;28;20112;-66
2021/12/08 01:29:39;;;;;;;35.42;15.38;;;;;;;;;;6314305;28;20399;-66
2021/12/08 01:32:43;;;;;;;38.50;15.23;;;;;;;;;;6315756;28;20058;-66
2021/12/08 01:35:47;;;;;;;37.17;15.43;;;;;;;;;;6317546;28;20608;-66
2021/12/08 01:38:50;;;;;;;32.08;14.43;;;;;;;;;;6317000;28;20512;-66
2021/12/08 01:41:54;;;;;;;36.63;15.80;;;;;;;;;;6318780;28;20052;-66
2021/12/08 01:48:20;;;;;;;34.10;15.77;;;;;;;;;;6321441;28;20052;-66
2021/12/08 01:51:25;;;;;;;35.25;15.85;;;;;;;;;;6322008;28;20050;-66
2021/12/08 01:54:30;;;;;;;38.38;15.57;;;;;;;;;;6321271;28;20052;-66
2021/12/08 01:57:33;;;;;;;36.33;15.45;;;;;;;;;;6322343;28;20044;-66
2021/12/08 02:00:40;;;;;;;35.13;14.38;;;;;;;;;;6338034;28;20059;-66
2021/12/08 02:03:44;;;;;;;31.75;14.05;;;;;;;;;;6321137;28;20143;-66
2021/12/08 02:06:48;;;;;;;32.22;14.65;;;;;;;;;;6322597;28;20060;-65
2021/12/08 02:09:51;;;;;;;30.80;14.32;;;;;;;;;;6321511;28;20636;-66
2021/12/08 02:12:54;;;;;;;28.00;13.13;;;;;;;;;;6336816;28;20390;-66
2021/12/08 02:16:01;;;;;;;33.67;14.60;;;;;;;;;;6333422;28;20199;-65
2021/12/08 02:19:05;;;;;;;32.40;14.15;;;;;;;;;;6322170;28;20413;-65
2021/12/08 02:22:10;;;;;;;32.53;14.32;;;;;;;;;;6320646;28;20044;-65
2021/12/08 02:25:14;;;;;;;31.33;13.50;;;;;;;;;;6320944;28;20043;-66
2021/12/08 02:28:17;;;;;;;31.30;13.80;;;;;;;;;;6321776;28;20044;-66
2021/12/08 02:31:32;;;;;;;29.92;13.50;;;;;;;;;;6321931;28;20048;-66
2021/12/08 02:48:00;;;;;;;27.40;12.65;;;;;;;;;;6319911;28;20422;-66
2021/12/08 02:51:03;;;;;;;28.42;12.05;;;;;;;;;;6319026;28;20093;-65
2021/12/08 02:54:07;;;;;;;25.33;12.52;;;;;;;;;;6319870;28;20658;-65
2021/12/08 02:57:11;;;;;;;24.83;11.85;;;;;;;;;;6319939;28;20040;-66
2021/12/08 03:00:16;;;;;;;28.67;11.90;;;;;;;;;;6319205;28;20044;-66
2021/12/08 03:03:19;;;;;;;27.40;13.32;;;;;;;;;;6321152;28;20047;-66
2021/12/08 03:06:25;;;;;;;27.48;12.02;;;;;;;;;;6321087;28;20127;-66
2021/12/08 03:09:29;;;;;;;30.10;12.70;;;;;;;;;;6319250;28;20048;-65
2021/12/08 03:12:32;;;;;;;27.10;12.07;;;;;;;;;;6320022;28;20043;-66
2021/12/08 03:15:36;;;;;;;23.75;12.35;;;;;;;;;;6321031;28;20102;-65
2021/12/08 03:18:40;;;;;;;29.60;12.45;;;;;;;;;;6319367;28;20150;-66
2021/12/08 03:21:43;;;;;;;26.73;12.35;;;;;;;;;;6318421;28;20044;-66
2021/12/08 03:24:50;;;;;;;25.35;11.82;;;;;;;;;;6319193;28;20123;-65
2021/12/08 03:28:05;;;;;;;27.40;11.65;;;;;;;;;;6320575;28;20109;-66
2021/12/08 03:31:12;;;;;;;27.05;12.73;;;;;;;;;;6318923;28;20044;-66
2021/12/08 03:34:19;;;;;;;26.30;11.63;;;;;;;;;;6320083;28;20040;-64
2021/12/08 03:37:23;;;;;;;25.35;10.68;;;;;;;;;;6320290;28;20089;-65
2021/12/08 03:40:28;;;;;;;23.23;11.18;;;;;;;;;;6318766;28;20044;-65
2021/12/08 03:43:33;;;;;;;28.50;11.77;;;;;;;;;;6319573;28;20441;-65
2021/12/08 03:46:40;;;;;;;27.63;11.45;;;;;;;;;;6319712;28;20048;-65
2021/12/08 03:49:44;;;;;;;26.05;11.85;;;;;;;;;;6318804;28;20578;-65
2021/12/08 03:52:47;;;;;;;25.33;11.38;;;;;;;;;;6319577;28;20109;-65
2021/12/08 03:55:53;;;;;;;28.05;12.52;;;;;;;;;;6318815;28;20502;-66
2021/12/08 03:58:56;;;;;;;25.02;11.18;;;;;;;;;;6318593;28;20089;-66
2021/12/08 04:01:59;;;;;;;25.65;11.38;;;;;;;;;;6319670;28;20702;-65
2021/12/08 04:05:03;;;;;;;25.92;12.10;;;;;;;;;;6317019;28;20051;-65
2021/12/08 04:08:14;;;;;;;26.23;11.48;;;;;;;;;;6318010;28;20051;-64
2021/12/08 04:11:21;;;;;;;28.15;12.68;;;;;;;;;;6319401;28;20052;-67
2021/12/08 04:14:25;;;;;;;27.02;12.10;;;;;;;;;;6319157;28;20050;-65
2021/12/08 04:17:30;;;;;;;31.05;12.20;;;;;;;;;;6316977;28;20062;-66
2021/12/08 04:20:35;;;;;;;28.48;11.63;;;;;;;;;;6320029;28;20070;-63
2021/12/08 04:23:40;;;;;;;29.38;11.85;;;;;;;;;;6319352;28;20422;-63
2021/12/08 04:26:50;;;;;;;23.77;11.43;;;;;;;;;;6318328;28;20059;-64
2021/12/08 04:29:53;;;;;;;23.25;10.73;;;;;;;;;;6318795;28;20544;-64
2021/12/08 04:32:57;;;;;;;27.00;11.70;;;;;;;;;;6317875;28;20047;-64
2021/12/08 04:36:01;;;;;;;22.50;10.70;;;;;;;;;;6318801;28;20483;-65
2021/12/08 04:39:06;;;;;;;28.88;11.98;;;;;;;;;;6318014;28;20050;-64
2021/12/08 04:42:17;;;;;;;23.15;12.20;;;;;;;;;;6319181;28;20049;-65
2021/12/08 04:45:30;;;;;;;28.08;11.82;;;;;;;;;;6317659;28;20052;-65
2021/12/08 04:48:51;;;;;;;25.85;11.15;;;;;;;;;;6316837;28;20059;-65
2021/12/08 04:52:03;;;;;;;24.98;10.95;;;;;;;;;;6318045;28;20036;-65
2021/12/08 05:02:04;;;;;;;22.15;10.43;;;;;;;;;;6317028;28;20486;-64
2021/12/08 05:05:22;;;;;;;24.42;10.77;;;;;;;;;;6317707;28;20050;-66
2021/12/08 05:08:35;;;;;;;24.67;10.38;;;;;;;;;;6318454;28;20044;-66
2021/12/08 05:11:40;;;;;;;23.65;10.10;;;;;;;;;;6318573;28;20056;-66
2021/12/08 05:14:47;;;;;;;28.20;12.52;;;;;;;;;;6317198;28;20044;-66
2021/12/08 05:17:55;;;;;;;32.47;14.13;;;;;;;;;;6321490;28;20137;-66
2021/12/08 05:21:03;;;;;;;29.20;14.65;;;;;;;;;;6323578;28;20089;-66
2021/12/08 05:24:07;;;;;;;30.35;14.02;;;;;;;;;;6323435;28;20236;-66
2021/12/08 05:27:13;;;;;;;28.65;13.38;;;;;;;;;;6321082;28;20051;-67
2021/12/08 05:30:19;;;;;;;25.50;11.63;;;;;;;;;;6321802;28;20044;-67
2021/12/08 05:33:22;;;;;;;24.80;10.95;;;;;;;;;;6322688;28;20047;-67
2021/12/08 05:36:25;;;;;;;25.75;12.02;;;;;;;;;;6321407;28;20307;-67
2021/12/08 05:39:29;;;;;;;22.42;10.70;;;;;;;;;;6322526;28;20036;-67
2021/12/08 05:42:36;;;;;;;25.13;10.43;;;;;;;;;;6321646;28;20497;-66
2021/12/08 05:45:40;;;;;;;23.48;10.18;;;;;;;;;;6321762;28;20044;-67
2021/12/08 05:48:46;;;;;;;25.60;11.57;;;;;;;;;;6321639;28;20118;-67
2021/12/08 05:51:52;;;;;;;25.25;12.30;;;;;;;;;;6322193;28;20056;-67
2021/12/08 05:54:55;;;;;;;27.02;11.73;;;;;;;;;;6322455;28;20383;-67
2021/12/08 05:58:01;;;;;;;24.63;11.05;;;;;;;;;;6322454;28;20044;-67
2021/12/08 06:01:07;;;;;;;28.60;10.75;;;;;;;;;;6337516;28;20044;-67
2021/12/08 06:04:12;;;;;;;24.08;11.20;;;;;;;;;;6322553;28;20059;-67
2021/12/08 06:07:15;;;;;;;20.27;9.77;;;;;;;;;;6320953;28;20068;-67
2021/12/08 06:10:19;;;;;;;21.02;9.65;;;;;;;;;;6336806;28;20047;-67
2021/12/08 06:13:22;;;;;;;23.90;9.65;;;;;;;;;;6321842;28;20047;-67
2021/12/08 06:16:27;;;;;;;22.45;9.70;;;;;;;;;;6337785;28;20056;-67
2021/12/08 06:19:30;;;;;;;20.95;9.50;;;;;;;;;;6321188;28;20036;-67
2021/12/08 06:22:33;;;;;;;23.88;10.65;;;;;;;;;;6337036;28;20044;-67
2021/12/08 06:25:37;;;;;;;25.05;10.48;;;;;;;;;;6337112;28;20513;-66
2021/12/08 06:28:43;;;;;;;28.00;12.77;;;;;;;;;;6320404;28;20485;-67
2021/12/08 06:31:49;;;;;;;29.58;12.05;;;;;;;;;;6320181;28;20032;-66
2021/12/08 06:34:54;;;;;;;26.13;11.50;;;;;;;;;;6320190;28;20078;-67
2021/12/08 06:37:57;;;;;;;22.90;10.07;;;;;;;;;;6321599;28;20126;-67
2021/12/08 06:41:02;;;;;;;21.00;10.15;;;;;;;;;;6320720;28;20048;-67
2021/12/08 06:44:08;;;;;;;21.40;10.90;;;;;;;;;;6301783;28;20486;-67
2021/12/08 06:47:16;;;;;;;21.27;9.55;;;;;;;;;;6321367;28;20482;-67
2021/12/08 06:50:20;;;;;;;20.90;9.73;;;;;;;;;;6321091;28;20414;-67
2021/12/08 06:53:29;;;;;;;24.23;10.80;;;;;;;;;;6320218;28;20059;-67
2021/12/08 06:56:36;;;;;;;20.25;9.48;;;;;;;;;;6319479;28;20062;-67
2021/12/08 06:59:54;;;;;;;19.17;8.73;;;;;;;;;;6321009;28;20052;-67
2021/12/08 07:03:17;;;;;;;20.23;9.30;;;;;;;;;;6320650;28;20040;-67
2021/12/08 07:06:42;;;;;;;19.55;9.85;;;;;;;;;;6320038;28;20054;-67
2021/12/08 07:09:46;;;;;;;19.23;8.77;;;;;;;;;;6320489;28;20152;-65
2021/12/08 07:12:52;;;;;;;20.65;9.63;;;;;;;;;;6320608;28;20044;-65
2021/12/08 07:15:57;;;;;;;22.83;10.10;;;;;;;;;;6335950;28;20046;-65
2021/12/08 07:19:10;;;;;;;22.73;10.38;;;;;;;;;;6335401;28;20043;-65
2021/12/08 07:22:15;;;;;;;21.58;9.68;;;;;;;;;;6320422;28;20044;-65
2021/12/08 07:25:20;;;;;;;20.70;10.73;;;;;;;;;;6320517;28;20509;-65
2021/12/08 07:28:24;;;;;;;23.30;9.75;;;;;;;;;;6318580;28;20050;-66
2021/12/08 07:31:28;;;;;;;21.27;10.75;;;;;;;;;;6317755;28;20432;-66
2021/12/08 07:34:36;;;;;;;23.45;10.60;;;;;;;;;;6318542;28;20123;-65
2021/12/08 07:37:39;;;;;;;21.33;9.90;;;;;;;;;;6317272;28;20047;-65
2021/12/08 07:40:44;;;;;;;20.75;9.48;;;;;;;;;;6317162;28;20055;-65
2021/12/08 07:43:49;;;;;;;24.58;9.57;;;;;;;;;;6334006;28;20056;-66
2021/12/08 07:46:53;;;;;;;22.92;10.27;;;;;;;;;;6315957;28;20189;-66
2021/12/08 07:50:00;;;;;;;23.70;10.82;;;;;;;;;;6316244;28;20502;-66
2021/12/08 07:53:06;;;;;;;25.58;10.95;;;;;;;;;;6331432;28;20090;-66
2021/12/08 07:56:10;;;;;;;25.65;10.52;;;;;;;;;;6334599;28;20502;-66
2021/12/08 07:59:15;;;;;;;20.92;9.50;;;;;;;;;;6318731;28;20181;-66
2021/12/08 08:02:18;;;;;;;19.38;10.13;;;;;;;;;;6318862;28;20044;-66
2021/12/08 08:05:27;;;;;;;27.58;11.98;;;;;;;;;;6319618;28;20044;-66
2021/12/08 08:08:33;;;;;;;21.05;10.70;;;;;;;;;;6319789;28;20557;-66
2021/12/08 08:11:40;;;;;;;24.35;10.45;;;;;;;;;;6317275;28;20505;-65
2021/12/08 08:14:50;;;;;;;24.83;11.77;;;;;;;;;;6319427;28;20048;-66
2021/12/08 08:17:54;;;;;;;26.90;11.25;;;;;;;;;;6319176;28;20098;-66
2021/12/08 08:21:00;;;;;;;23.60;11.75;;;;;;;;;;6318901;28;20043;-66
2021/12/08 08:24:03;;;;;;;27.92;13.05;;;;;;;;;;6318426;28;20131;-66
2021/12/08 08:27:09;;;;;;;29.42;13.65;;;;;;;;;;6319440;28;20044;-66
2021/12/08 08:30:14;;;;;;;29.40;13.35;;;;;;;;;;6319005;28;20044;-66
2021/12/08 08:33:20;;;;;;;28.38;13.65;;;;;;;;;;6318229;28;20471;-65
2021/12/08 08:36:26;;;;;;;31.25;12.52;;;;;;;;;;6318579;28;20081;-66
2021/12/08 08:39:31;;;;;;;31.88;12.93;;;;;;;;;;6317417;28;20032;-66
2021/12/08 08:42:36;;;;;;;29.23;15.15;;;;;;;;;;6318782;28;20058;-65
2021/12/08 08:45:42;;;;;;;34.08;16.58;;;;;;;;;;6316969;28;20059;-66
2021/12/08 08:48:48;;;;;;;40.10;16.92;;;;;;;;;;6317349;28;20193;-66
2021/12/08 08:52:00;;;;;;;39.45;16.77;;;;;;;;;;6317398;28;20458;-65
2021/12/08 08:55:05;;;;;;;38.35;17.80;;;;;;;;;;6315600;28;20063;-66
2021/12/08 08:58:11;;;;;;;42.45;17.23;;;;;;;;;;6316998;28;20069;-66
2021/12/08 09:01:16;;;;;;;39.92;18.23;;;;;;;;;;6318598;28;20044;-66
2021/12/08 09:04:21;;;;;;;41.28;18.73;;;;;;;;;;6316819;28;20044;-66
2021/12/08 09:07:27;;;;;;;43.95;18.90;;;;;;;;;;6316602;28;20056;-66
2021/12/08 09:10:36;;;;;;;41.17;20.00;;;;;;;;;;6317000;28;20646;-65
2021/12/08 09:13:41;;;;;;;47.03;20.50;;;;;;;;;;6318741;28;20102;-66
2021/12/08 09:16:46;;;;;;;49.70;22.00;;;;;;;;;;6316390;28;20086;-65
2021/12/08 09:19:55;;;;;;;57.70;24.05;;;;;;;;;;6316131;28;20154;-66
2021/12/08 09:23:01;;;;;;;48.55;23.73;;;;;;;;;;6315438;28;20055;-66
2021/12/08 09:26:05;;;;;;;50.00;23.15;;;;;;;;;;6317246;28;20401;-66
2021/12/08 09:29:11;;;;;;;49.55;22.63;;;;;;;;;;6315542;28;20048;-66
2021/12/08 09:32:18;;;;;;;49.05;22.33;;;;;;;;;;6317494;28;20048;-66
2021/12/08 09:35:23;;;;;;;50.30;22.80;;;;;;;;;;6318225;28;20048;-67
2021/12/08 09:38:30;;;;;;;45.83;21.65;;;;;;;;;;6317004;28;20048;-66
2021/12/08 09:41:37;;;;;;;51.97;21.92;;;;;;;;;;6317411;28;20544;-66
2021/12/08 09:44:46;;;;;;;49.83;23.23;;;;;;;;;;6332832;28;20463;-66
2021/12/08 09:47:49;;;;;;;48.00;20.52;;;;;;;;;;6316350;28;20097;-67
2021/12/08 09:50:55;;;;;;;42.03;20.70;;;;;;;;;;6317441;28;20058;-66
2021/12/08 09:53:59;;;;;;;50.70;22.83;;;;;;;;;;6316458;28;20125;-66
2021/12/08 09:57:10;;;;;;;47.88;20.80;;;;;;;;;;6316451;28;20158;-66
2021/12/08 10:00:17;;;;;;;49.15;23.25;;;;;;;;;;6315712;28;20048;-67
2021/12/08 10:03:20;;;;;;;43.53;21.00;;;;;;;;;;6320089;28;20040;-65
2021/12/08 10:06:25;;;;;;;47.60;21.65;;;;;;;;;;6321499;28;20094;-66
2021/12/08 10:09:32;;;;;;;49.22;20.52;;;;;;;;;;6322152;28;20059;-65
2021/12/08 10:12:37;;;;;;;46.40;20.83;;;;;;;;;;6319682;28;20048;-65
2021/12/08 10:15:40;;;;;;;46.38;21.10;;;;;;;;;;6321639;28;20047;-66
2021/12/08 10:18:44;;;;;;;44.83;20.42;;;;;;;;;;6321573;28;20051;-65
2021/12/08 10:21:47;;;;;;;44.55;21.17;;;;;;;;;;6321215;28;20048;-66
2021/12/08 10:25:04;;;;;;;48.70;22.85;;;;;;;;;;6319673;28;20044;-65
2021/12/08 10:28:07;;;;;;;;;;;;;;;;;;6322035;28;20193;-66
2021/12/08 10:31:12;;;;;;;52.88;25.75;;;;;;;;;;6320072;28;19927;-64
2021/12/08 10:34:23;;;;;;;43.53;20.95;;;;;;;;;;6320554;28;20048;-65
2021/12/08 10:37:26;;;;;;;49.75;23.40;;;;;;;;;;6319801;28;20059;-66
2021/12/08 10:40:31;;;;;;;60.67;24.88;;;;;;;;;;6319518;28;20056;-66
2021/12/08 10:43:34;;;;;;;51.20;24.27;;;;;;;;;;6319640;28;20059;-66
2021/12/08 10:46:38;;;;;;;51.35;26.55;;;;;;;;;;6320302;28;20599;-66
2021/12/08 10:56:33;;;;;;;56.30;27.23;;;;;;;;;;6320260;28;20048;-66
2021/12/08 10:59:53;;;;;;;65.80;28.98;;;;;;;;;;6318537;28;20545;-66
2021/12/08 11:02:58;;;;;;;61.70;29.25;;;;;;;;;;6320699;28;20051;-66
2021/12/08 11:06:03;;;;;;;63.42;31.00;;;;;;;;;;6319563;28;20040;-66
2021/12/08 11:09:13;;;;;;;62.20;29.90;;;;;;;;;;6319988;28;20044;-66
2021/12/08 11:12:17;;;;;;;66.88;32.50;;;;;;;;;;6319926;28;20122;-66
2021/12/08 11:15:22;;;;;;;67.22;32.17;;;;;;;;;;6320527;28;20035;-66
2021/12/08 11:18:29;;;;;;;58.10;30.08;;;;;;;;;;6319731;28;20050;-66
2021/12/08 11:21:36;;;;;;;65.70;30.70;;;;;;;;;;6318087;28;20044;-66
2021/12/08 11:24:56;;;;;;;54.20;27.70;;;;;;;;;;6318616;28;20450;-66
2021/12/08 11:28:17;;;;;;;82.10;38.50;;;;;;;;;;6320508;28;20044;-67
2021/12/08 11:31:20;;;;;;;57.47;27.63;;;;;;;;;;6318599;28;20109;-66
2021/12/08 11:34:24;;;;;;;58.45;27.77;;;;;;;;;;6318941;28;20097;-66
2021/12/08 11:37:32;;;;;;;70.50;28.88;;;;;;;;;;6318559;28;20052;-67
2021/12/08 11:40:36;;;;;;;55.60;27.00;;;;;;;;;;6318353;28;20066;-66
2021/12/08 11:43:40;;;;;;;55.70;27.58;;;;;;;;;;6319001;28;20482;-67
2021/12/08 11:46:46;;;;;;;54.20;26.75;;;;;;;;;;6318048;28;20052;-66
2021/12/08 11:49:52;;;;;;;57.65;28.55;;;;;;;;;;6319755;28;20055;-67
2021/12/08 11:52:56;;;;;;;53.53;25.92;;;;;;;;;;6317312;28;20051;-67
2021/12/08 11:55:59;;;;;;;53.90;26.35;;;;;;;;;;6318718;28;20054;-67
2021/12/08 11:59:08;;;;;;;48.85;24.70;;;;;;;;;;6317668;28;20104;-66
2021/12/08 12:02:15;;;;;;;54.13;26.17;;;;;;;;;;6319576;28;20035;-67
2021/12/08 12:05:19;;;;;;;51.33;25.33;;;;;;;;;;6317232;28;20044;-66
2021/12/08 12:08:24;;;;;;;53.25;25.77;;;;;;;;;;6317711;28;20164;-66
2021/12/08 12:11:28;;;;;;;56.10;27.23;;;;;;;;;;6319011;28;20055;-66
2021/12/08 12:14:33;;;;;;;52.90;24.55;;;;;;;;;;6318900;28;20134;-67
2021/12/08 12:17:36;;;;;;;58.30;26.60;;;;;;;;;;6316906;28;20048;-66
2021/12/08 12:20:40;;;;;;;62.15;29.52;;;;;;;;;;6318740;28;20174;-66
2021/12/08 12:23:52;;;;;;;59.47;27.38;;;;;;;;;;6318241;28;20044;-66
2021/12/08 12:27:01;;;;;;;63.22;28.88;;;;;;;;;;6316678;28;20567;-66
2021/12/08 12:30:19;;;;;;;55.38;28.77;;;;;;;;;;6317899;28;20036;-67
2021/12/08 12:33:23;;;;;;;54.42;27.92;;;;;;;;;;6318696;28;20048;-66
2021/12/08 12:36:28;;;;;;;59.58;27.83;;;;;;;;;;6318389;28;20424;-66
2021/12/08 12:39:31;;;;;;;56.63;28.17;;;;;;;;;;6317740;28;20048;-65
2021/12/08 12:42:48;;;;;;;53.20;25.00;;;;;;;;;;6318705;28;20105;-67
2021/12/08 12:46:01;;;;;;;55.28;25.95;;;;;;;;;;6317323;28;20144;-67
2021/12/08 12:49:19;;;;;;;55.85;26.38;;;;;;;;;;6317834;28;20048;-66
2021/12/08 12:52:33;;;;;;;57.20;27.92;;;;;;;;;;6317292;28;20508;-67
2021/12/08 12:55:45;;;;;;;57.78;27.27;;;;;;;;;;6317921;28;20060;-66
2021/12/08 12:58:49;;;;;;;54.67;26.92;;;;;;;;;;6316819;28;20067;-67
2021/12/08 13:02:07;;;;;;;60.70;27.95;;;;;;;;;;6317583;28;20430;-67
2021/12/08 13:05:10;;;;;;;116.78;49.10;;;;;;;;;;6317006;28;20068;-65
2021/12/08 13:08:14;;;;;;;53.35;27.13;;;;;;;;;;6316577;28;20048;-67
2021/12/08 13:11:57;;;;;;;56.13;26.67;;;;;;;;;;6318032;28;20116;-66
2021/12/08 13:15:08;;;;;;;51.35;25.30;;;;;;;;;;6303263;28;20056;-66
2021/12/08 13:18:13;;;;;;;50.13;24.48;;;;;;;;;;6314466;28;20051;-66
2021/12/08 13:21:16;;;;;;;54.47;23.67;;;;;;;;;;6316984;28;20046;-67
2021/12/08 13:24:32;;;;;;;43.42;21.85;;;;;;;;;;6317872;28;20055;-67
2021/12/08 13:27:48;;;;;;;45.00;21.95;;;;;;;;;;6316005;28;20089;-67
2021/12/08 13:30:55;;;;;;;45.08;21.17;;;;;;;;;;6315934;28;20044;-67
2021/12/08 13:34:02;;;;;;;40.70;20.60;;;;;;;;;;6318037;28;20551;-68
2021/12/08 13:37:16;;;;;;;44.95;21.15;;;;;;;;;;6318802;28;20454;-67
2021/12/08 13:40:19;;;;;;;41.15;20.77;;;;;;;;;;6321841;28;20048;-68
2021/12/08 13:43:33;;;;;;;41.58;20.27;;;;;;;;;;6321452;28;20130;-67
2021/12/08 13:46:40;;;;;;;44.15;21.88;;;;;;;;;;6322861;28;20052;-68
2021/12/08 13:49:49;;;;;;;44.40;21.98;;;;;;;;;;6322045;28;20048;-68
2021/12/08 13:53:00;;;;;;;48.90;24.00;;;;;;;;;;6321368;28;20475;-68
2021/12/08 13:56:03;;;;;;;44.97;22.17;;;;;;;;;;6322663;28;20233;-67
2021/12/08 13:59:08;;;;;;;40.92;20.02;;;;;;;;;;6321281;28;20040;-67
2021/12/08 14:02:21;;;;;;;143.15;64.55;;;;;;;;;;6320056;28;20173;-68
2021/12/08 14:05:27;;;;;;;47.60;24.17;;;;;;;;;;6321646;28;20048;-69
2021/12/08 14:08:34;;;;;;;44.45;22.58;;;;;;;;;;6321063;28;20101;-67
2021/12/08 14:11:38;;;;;;;46.78;22.65;;;;;;;;;;6322168;28;20044;-67
2021/12/08 14:14:41;;;;;;;47.60;23.40;;;;;;;;;;6319630;28;20071;-68
2021/12/08 14:17:44;;;;;;;47.58;22.38;;;;;;;;;;6321440;28;20141;-67
2021/12/08 14:20:49;;;;;;;45.88;22.10;;;;;;;;;;6320360;28;20052;-68
2021/12/08 14:23:53;;;;;;;43.85;22.35;;;;;;;;;;6321180;28;20040;-68
2021/12/08 14:26:57;;;;;;;44.25;22.90;;;;;;;;;;6321034;28;20411;-67
2021/12/08 14:30:00;;;;;;;45.00;23.38;;;;;;;;;;6321898;28;20436;-67
2021/12/08 14:33:04;;;;;;;49.08;23.48;;;;;;;;;;6319772;28;20490;-67
2021/12/08 14:36:09;;;;;;;45.55;24.13;;;;;;;;;;6319407;28;20490;-66
2021/12/08 14:39:18;;;;;;;47.53;23.15;;;;;;;;;;6321139;28;20135;-66
2021/12/08 14:42:26;;;;;;;47.08;23.67;;;;;;;;;;6321243;28;20145;-67
2021/12/08 14:45:31;;;;;;;42.78;21.50;;;;;;;;;;6319153;28;20040;-67
2021/12/08 14:48:34;;;;;;;46.42;23.70;;;;;;;;;;6318861;28;20123;-67
2021/12/08 14:51:41;;;;;;;53.45;23.77;;;;;;;;;;6319131;28;20124;-67
2021/12/08 14:54:45;;;;;;;57.80;25.30;;;;;;;;;;6320507;28;20051;-66
2021/12/08 14:57:52;;;;;;;51.17;24.30;;;;;;;;;;6318561;28;20518;-69
2021/12/08 15:00:57;;;;;;;57.70;28.63;;;;;;;;;;6319174;28;20042;-68
2021/12/08 15:04:00;;;;;;;48.75;23.73;;;;;;;;;;6319539;28;20064;-68
2021/12/08 15:09:56;;;;;;;51.90;24.85;;;;;;;;;;6315411;27;20481;-69
2021/12/08 15:13:07;;;;;;;53.80;24.58;;;;;;;;;;6314220;28;20044;-69
2021/12/08 15:16:12;;;;;;;47.67;23.40;;;;;;;;;;6314646;28;20085;-69
2021/12/08 15:19:15;;;;;;;56.38;23.85;;;;;;;;;;6311193;28;20521;-68
2021/12/08 15:22:25;;;;;;;57.97;25.45;;;;;;;;;;6313983;28;20079;-69
2021/12/08 15:25:29;;;;;;;55.85;25.98;;;;;;;;;;6315381;28;20446;-67
2021/12/08 15:28:33;;;;;;;70.32;30.27;;;;;;;;;;6311819;28;20163;-67
2021/12/08 15:31:40;;;;;;;53.15;26.05;;;;;;;;;;6312164;28;20383;-67
2021/12/08 15:34:44;;;;;;;49.58;23.88;;;;;;;;;;6313405;28;20156;-68
2021/12/08 15:37:52;;;;;;;56.10;25.05;;;;;;;;;;6312263;28;20048;-68
2021/12/08 15:40:56;;;;;;;54.20;23.65;;;;;;;;;;6311756;28;20528;-68
2021/12/08 15:44:10;;;;;;;58.83;24.65;;;;;;;;;;6312475;28;20047;-68
2021/12/08 15:47:15;;;;;;;;;;;;;;;;;;6312775;28;20563;-68
2021/12/08 15:50:19;;;;;;;54.55;24.55;;;;;;;;;;6311207;28;19920;-68
2021/12/08 15:53:23;;;;;;;53.83;23.55;;;;;;;;;;6313401;28;20059;-68
2021/12/08 15:56:31;;;;;;;55.95;25.92;;;;;;;;;;6313258;28;20048;-67
2021/12/08 15:59:34;;;;;;;57.05;25.52;;;;;;;;;;6314724;28;20078;-67
2021/12/08 16:02:39;;;;;;;50.10;23.35;;;;;;;;;;6311108;28;20040;-67
2021/12/08 16:05:43;;;;;;;49.23;23.07;;;;;;;;;;6313232;28;20048;-67
2021/12/08 16:08:46;;;;;;;46.85;23.15;;;;;;;;;;6312662;28;20094;-67
2021/12/08 16:11:52;;;;;;;48.25;22.85;;;;;;;;;;6312930;28;20044;-68
2021/12/08 16:14:57;;;;;;;44.67;23.10;;;;;;;;;;6313541;28;20087;-68
2021/12/08 16:18:01;;;;;;;52.20;25.02;;;;;;;;;;6314044;28;20501;-68
2021/12/08 16:21:05;;;;;;;54.67;25.40;;;;;;;;;;6295890;28;20151;-68
2021/12/08 16:24:08;;;;;;;61.17;27.33;;;;;;;;;;6294248;28;20052;-67
2021/12/08 16:27:13;;;;;;;67.05;28.27;;;;;;;;;;6297004;28;20055;-67
2021/12/08 16:30:16;;;;;;;57.65;26.10;;;;;;;;;;6296659;28;20090;-67
2021/12/08 16:33:19;;;;;;;57.92;25.58;;;;;;;;;;6295475;28;20045;-67
2021/12/08 16:36:22;;;;;;;51.83;24.92;;;;;;;;;;6296414;28;20127;-66
2021/12/08 16:39:29;;;;;;;53.53;24.48;;;;;;;;;;6295625;28;20046;-67
2021/12/08 16:45:57;;;;;;;54.08;24.00;;;;;;;;;;6293824;28;20048;-67
2021/12/08 16:49:00;;;;;;;44.85;22.75;;;;;;;;;;6296941;28;20052;-67
2021/12/08 16:52:04;;;;;;;51.45;25.05;;;;;;;;;;6295219;28;20044;-67
2021/12/08 16:55:11;;;;;;;52.83;25.65;;;;;;;;;;6294201;28;20049;-67
2021/12/08 16:58:15;;;;;;;57.05;27.98;;;;;;;;;;6295528;28;20044;-66
2021/12/08 17:01:18;;;;;;;57.75;26.10;;;;;;;;;;6293011;28;20047;-66
2021/12/08 17:04:21;;;;;;;56.17;24.80;;;;;;;;;;6293440;28;20052;-66
2021/12/08 17:07:24;;;;;;;55.42;25.30;;;;;;;;;;6290173;28;20067;-66
2021/12/08 17:10:29;;;;;;;52.65;24.83;;;;;;;;;;6289985;28;20049;-66
2021/12/08 17:13:35;;;;;;;55.50;25.73;;;;;;;;;;6291609;28;20738;-66
2021/12/08 17:16:38;;;;;;;;;;;;;;;;;;6292887;28;20048;-66
2021/12/08 17:19:41;;;;;;;56.15;24.13;;;;;;;;;;6292208;28;19969;-66
2021/12/08 17:22:44;;;;;;;55.95;24.88;;;;;;;;;;6294103;28;20048;-67
2021/12/08 17:25:48;;;;;;;54.85;25.92;;;;;;;;;;6293766;28;20090;-68
2021/12/08 17:28:53;;;;;;;58.35;26.77;;;;;;;;;;6293220;28;20044;-67
2021/12/08 17:31:56;;;;;;;60.75;27.27;;;;;;;;;;6291396;28;20067;-67
2021/12/08 17:34:59;;;;;;;56.03;26.45;;;;;;;;;;6293735;28;20094;-67
2021/12/08 17:38:01;;;;;;;54.30;24.95;;;;;;;;;;6291208;28;20081;-67
2021/12/08 17:41:05;;;;;;;50.65;24.08;;;;;;;;;;6291984;28;20078;-67
2021/12/08 17:44:10;;;;;;;52.78;24.58;;;;;;;;;;6292133;28;20096;-67
2021/12/08 17:47:15;;;;;;;52.15;24.08;;;;;;;;;;6291508;28;20052;-67
2021/12/08 17:50:19;;;;;;;51.75;22.85;;;;;;;;;;6292406;28;20044;-67
2021/12/08 17:53:23;;;;;;;47.22;23.05;;;;;;;;;;6293707;28;20056;-67
2021/12/08 17:56:26;;;;;;;49.28;23.15;;;;;;;;;;6293358;28;20122;-68
2021/12/08 17:59:31;;;;;;;51.45;24.27;;;;;;;;;;6290841;28;20095;-67
2021/12/08 18:02:36;;;;;;;47.35;23.25;;;;;;;;;;6291948;28;20495;-67
2021/12/08 18:05:39;;;;;;;53.58;24.60;;;;;;;;;;6291614;28;20060;-67
2021/12/08 18:08:42;;;;;;;53.85;25.30;;;;;;;;;;6291674;28;20537;-67
2021/12/08 18:11:46;;;;;;;52.80;24.77;;;;;;;;;;6292246;28;20044;-67
2021/12/08 18:14:51;;;;;;;52.13;24.27;;;;;;;;;;6292804;28;20437;-67
2021/12/08 18:17:57;;;;;;;51.50;24.08;;;;;;;;;;6292062;28;20053;-67
2021/12/08 18:21:00;;;;;;;52.15;24.05;;;;;;;;;;6286835;28;20490;-66
2021/12/08 18:24:03;;;;;;;56.70;24.95;;;;;;;;;;6285339;28;20048;-66
2021/12/08 18:27:09;;;;;;;48.78;23.27;;;;;;;;;;6279170;28;20051;-67
2021/12/08 18:30:15;;;;;;;49.10;22.55;;;;;;;;;;6287839;28;20044;-67
2021/12/08 18:33:20;;;;;;;51.58;22.70;;;;;;;;;;6288596;28;20067;-67
2021/12/08 18:36:28;;;;;;;45.70;22.63;;;;;;;;;;6293079;28;20056;-66
2021/12/08 18:39:32;;;;;;;47.25;21.58;;;;;;;;;;6292432;28;20044;-67